Time;durP1;ratioP1;P1;durP2;ratioP2;P2;SDS_P1;SDS_P2;PMS_P1;PMS_P2;Temp;Humidity;BMP_temperature;BMP_pressure;BME280_temperature;BME280_humidity;BME280_pressure;Samples;Min_cycle;Max_cycle;Signal;HPM_P1;HPM_P2
2022/07/03 00:01:47;;;;;;;0.20;0.20;;;17.50;99.90;;;;;;5087118;28;20036;-68
2022/07/03 00:04:13;;;;;;;0.20;0.20;;;17.40;99.90;;;;;;5065305;28;20044;-68
2022/07/03 00:06:39;;;;;;;;;;;17.40;99.90;;;;;;5088120;28;20152;-68
2022/07/03 00:09:05;;;;;;;0.32;0.20;;;17.40;99.90;;;;;;5087743;28;20427;-69
2022/07/03 00:11:32;;;;;;;0.20;0.10;;;17.30;99.90;;;;;;5061812;28;20044;-68
2022/07/03 00:13:58;;;;;;;0.52;0.20;;;17.30;99.90;;;;;;5087394;28;20051;-69
2022/07/03 00:16:25;;;;;;;0.57;0.20;;;17.20;99.90;;;;;;5094575;28;20044;-68
2022/07/03 00:18:50;;;;;;;0.50;0.30;;;17.20;99.90;;;;;;5079754;28;20490;-68
2022/07/03 00:21:41;;;;;;;0.47;0.30;;;17.20;99.90;;;;;;5082200;28;20044;-69
2022/07/03 00:24:16;;;;;;;0.50;0.40;;;17.20;99.90;;;;;;5080584;28;20105;-69
2022/07/03 00:26:44;;;;;;;0.30;0.28;;;17.10;99.90;;;;;;5071940;28;20093;-69
2022/07/03 00:29:12;;;;;;;0.38;0.30;;;17.10;99.90;;;;;;5086948;28;20090;-69
2022/07/03 00:31:37;;;;;;;0.88;0.45;;;17.10;99.90;;;;;;5083963;28;20417;-68
2022/07/03 00:34:08;;;;;;;0.55;0.30;;;17.00;99.90;;;;;;5079991;28;20040;-69
2022/07/03 00:36:37;;;;;;;0.85;0.40;;;17.00;99.90;;;;;;5081187;28;20044;-68
2022/07/03 00:39:04;;;;;;;0.28;0.22;;;16.90;99.90;;;;;;5087324;28;20032;-68
2022/07/03 00:41:33;;;;;;;0.30;0.30;;;16.90;99.90;;;;;;5088823;28;20085;-69
2022/07/03 00:43:59;;;;;;;0.10;0.10;;;16.80;99.90;;;;;;5088580;28;20044;-68
2022/07/03 00:46:27;;;;;;;0.20;0.20;;;16.80;99.90;;;;;;5086392;28;20043;-69
2022/07/03 00:48:55;;;;;;;0.50;0.30;;;16.80;99.90;;;;;;5084842;28;20035;-68
2022/07/03 00:51:23;;;;;;;0.40;0.40;;;16.80;99.90;;;;;;5087711;28;20044;-69
2022/07/03 00:53:55;;;;;;;1.35;0.70;;;16.80;99.90;;;;;;5088053;28;20040;-69
2022/07/03 00:56:28;;;;;;;1.20;0.68;;;16.80;99.90;;;;;;5089113;28;20443;-68
2022/07/03 00:58:57;;;;;;;0.55;0.50;;;16.70;99.90;;;;;;5085539;28;20085;-69
2022/07/03 01:01:31;;;;;;;0.47;0.40;;;16.70;99.90;;;;;;5085982;28;20071;-68
2022/07/03 01:04:22;;;;;;;0.43;0.43;;;16.60;99.90;;;;;;5068684;28;20390;-68
2022/07/03 01:07:34;;;;;;;0.70;0.60;;;16.60;99.90;;;;;;5058528;28;20067;-68
2022/07/03 01:10:22;;;;;;;0.40;0.40;;;16.60;99.90;;;;;;5029233;28;20039;-68
2022/07/03 01:13:15;;;;;;;0.40;0.30;;;16.60;99.90;;;;;;5064712;28;20067;-68
2022/07/03 01:15:50;;;;;;;0.47;0.40;;;16.50;99.90;;;;;;5065662;28;20045;-68
2022/07/03 01:18:26;;;;;;;0.50;0.43;;;16.50;99.90;;;;;;5067103;28;20048;-68
2022/07/03 01:20:59;;;;;;;0.40;0.30;;;16.50;99.90;;;;;;5065196;28;20120;-68
2022/07/03 01:24:10;;;;;;;0.20;0.20;;;16.40;99.90;;;;;;5068118;28;20055;-68
2022/07/03 01:26:41;;;;;;;0.38;0.28;;;16.40;99.90;;;;;;5063774;28;20084;-69
2022/07/03 01:29:13;;;;;;;0.32;0.30;;;16.40;99.90;;;;;;5066924;28;20029;-69
2022/07/03 01:31:40;;;;;;;0.57;0.40;;;16.20;99.90;;;;;;5064905;28;20456;-68
2022/07/03 01:34:13;;;;;;;0.22;0.20;;;16.30;99.90;;;;;;5068438;28;20490;-68
2022/07/03 01:36:42;;;;;;;0.38;0.30;;;16.20;99.90;;;;;;5058966;28;20118;-68
2022/07/03 01:39:10;;;;;;;0.73;0.40;;;16.10;99.90;;;;;;5054862;28;20040;-68
2022/07/03 01:41:37;;;;;;;0.77;0.60;;;16.00;99.90;;;;;;5062275;28;20076;-68
2022/07/03 01:44:04;;;;;;;1.00;0.70;;;16.00;99.90;;;;;;5065650;28;20036;-68
2022/07/03 01:46:32;;;;;;;1.00;0.90;;;16.00;99.90;;;;;;5042629;28;20519;-68
2022/07/03 01:48:59;;;;;;;1.60;0.98;;;16.00;99.90;;;;;;5058461;28;20148;-68
2022/07/03 01:51:26;;;;;;;1.30;1.10;;;15.90;99.90;;;;;;5066419;28;20369;-68
2022/07/03 01:53:53;;;;;;;2.75;1.30;;;15.90;99.90;;;;;;5066383;28;20048;-68
2022/07/03 01:56:21;;;;;;;1.70;1.40;;;15.80;99.90;;;;;;5042161;28;20116;-68
2022/07/03 01:58:48;;;;;;;1.60;1.30;;;15.70;99.90;;;;;;5084465;28;20498;-68
2022/07/03 02:01:28;;;;;;;1.27;1.10;;;15.70;99.90;;;;;;5057822;28;20036;-68
2022/07/03 02:04:05;;;;;;;1.70;1.23;;;15.50;99.90;;;;;;5067997;28;20111;-68
2022/07/03 02:06:41;;;;;;;1.33;1.13;;;15.50;99.90;;;;;;5086356;28;20056;-68
2022/07/03 02:09:10;;;;;;;1.65;1.23;;;15.40;99.90;;;;;;5067920;28;20506;-68
2022/07/03 02:11:38;;;;;;;1.85;1.40;;;15.40;99.90;;;;;;5067226;28;20079;-69
2022/07/03 02:14:16;;;;;;;1.85;1.20;;;15.40;99.90;;;;;;5088408;28;20032;-69
2022/07/03 02:16:54;;;;;;;1.90;1.60;;;15.30;99.90;;;;;;5067775;28;20047;-68
2022/07/03 02:19:28;;;;;;;1.98;1.30;;;15.20;99.90;;;;;;5073024;28;20066;-69
2022/07/03 02:21:56;;;;;;;3.65;1.95;;;15.10;99.90;;;;;;5091790;28;20063;-69
2022/07/03 02:24:27;;;;;;;4.30;2.20;;;15.10;99.90;;;;;;5091180;28;20047;-69
2022/07/03 02:27:01;;;;;;;2.30;1.60;;;15.20;99.90;;;;;;5088056;28;20045;-69
2022/07/03 02:29:45;;;;;;;1.50;1.13;;;15.10;99.90;;;;;;5089399;28;20072;-69
2022/07/03 02:32:13;;;;;;;1.90;1.13;;;15.20;99.90;;;;;;5091257;28;20055;-69
2022/07/03 02:34:49;;;;;;;1.33;1.05;;;15.10;99.90;;;;;;5089190;28;20040;-69
2022/07/03 02:37:19;;;;;;;1.17;0.70;;;15.10;99.90;;;;;;5081928;28;20487;-69
2022/07/03 02:39:57;;;;;;;0.55;0.52;;;15.10;99.90;;;;;;5072923;28;20042;-69
2022/07/03 02:42:23;;;;;;;1.13;0.65;;;15.10;99.90;;;;;;5091654;28;20483;-69
2022/07/03 02:44:53;;;;;;;0.45;0.43;;;15.10;99.90;;;;;;5085668;28;20040;-69
2022/07/03 02:47:42;;;;;;;0.43;0.30;;;14.90;99.90;;;;;;5087678;28;20067;-69
2022/07/03 02:50:11;;;;;;;0.82;0.40;;;14.90;99.90;;;;;;5086464;28;20373;-68
2022/07/03 02:52:43;;;;;;;0.70;0.50;;;14.80;99.90;;;;;;5088578;28;20048;-68
2022/07/03 02:55:27;;;;;;;0.50;0.50;;;14.70;99.90;;;;;;5074136;28;20076;-69
2022/07/03 02:58:06;;;;;;;0.80;0.50;;;14.70;99.90;;;;;;5091858;28;20040;-69
2022/07/03 03:00:36;;;;;;;0.50;0.45;;;14.60;99.90;;;;;;5091462;28;20044;-69
2022/07/03 03:03:03;;;;;;;0.57;0.40;;;14.60;99.90;;;;;;5100576;28;20043;-69
2022/07/03 03:05:40;;;;;;;0.85;0.60;;;14.60;99.90;;;;;;5090492;28;20140;-69
2022/07/03 03:08:06;;;;;;;;;;;14.50;99.90;;;;;;5081925;28;20047;-68
2022/07/03 03:10:37;;;;;;;0.80;0.63;;;14.50;99.90;;;;;;5087470;28;19916;-68
2022/07/03 03:13:05;;;;;;;0.52;0.52;;;14.40;99.90;;;;;;5072207;28;20480;-69
2022/07/03 03:15:32;;;;;;;0.88;0.73;;;14.30;99.90;;;;;;5077400;28;20047;-69
2022/07/03 03:18:11;;;;;;;0.77;0.70;;;14.40;99.90;;;;;;5061018;28;20063;-68
2022/07/03 03:20:39;;;;;;;0.90;0.60;;;14.30;99.90;;;;;;5071339;28;20052;-69
2022/07/03 03:23:18;;;;;;;1.95;0.90;;;14.20;99.90;;;;;;5072723;28;20106;-69
2022/07/03 03:25:44;;;;;;;0.80;0.70;;;14.10;99.90;;;;;;5081083;28;20043;-69
2022/07/03 03:28:11;;;;;;;0.70;0.70;;;14.10;99.90;;;;;;5070777;28;20035;-69
2022/07/03 03:30:36;;;;;;;;;;;14.10;99.90;;;;;;5082943;28;20212;-68
2022/07/03 03:33:09;;;;;;;0.60;0.50;;;14.00;99.90;;;;;;5084301;28;20411;-68
2022/07/03 03:35:38;;;;;;;0.65;0.38;;;14.00;99.90;;;;;;5056844;28;20047;-69
2022/07/03 03:38:05;;;;;;;0.43;0.40;;;14.10;99.90;;;;;;5078382;28;20128;-68
2022/07/03 03:40:34;;;;;;;;;;;14.10;99.90;;;;;;5071535;28;20048;-69
2022/07/03 03:43:01;;;;;;;1.10;0.63;;;14.10;99.90;;;;;;5064855;28;19916;-69
2022/07/03 03:45:27;;;;;;;1.00;0.70;;;14.10;99.90;;;;;;5077626;28;20047;-69
2022/07/03 03:47:54;;;;;;;0.60;0.47;;;14.10;99.90;;;;;;5080203;28;20036;-69
2022/07/03 03:50:20;;;;;;;0.95;0.75;;;14.10;99.90;;;;;;5052560;28;20448;-68
2022/07/03 03:52:46;;;;;;;0.75;0.60;;;14.10;99.90;;;;;;5074872;28;20050;-69
2022/07/03 03:55:12;;;;;;;0.57;0.45;;;14.10;99.90;;;;;;5064806;28;20040;-69
2022/07/03 03:57:38;;;;;;;0.40;0.40;;;14.20;99.90;;;;;;5054921;28;20054;-69
2022/07/03 04:00:05;;;;;;;0.50;0.40;;;14.20;99.90;;;;;;5084715;28;20043;-69
2022/07/03 04:02:31;;;;;;;0.95;0.50;;;14.20;99.90;;;;;;5073466;28;20486;-69
2022/07/03 04:04:56;;;;;;;;;;;14.20;99.90;;;;;;5083219;28;20060;-69
2022/07/03 04:07:22;;;;;;;0.52;0.52;;;14.10;99.90;;;;;;5062103;28;19928;-69
2022/07/03 04:09:48;;;;;;;0.85;0.65;;;14.10;99.90;;;;;;5079149;28;20032;-69
2022/07/03 04:12:14;;;;;;;0.60;0.50;;;14.10;99.90;;;;;;5058234;28;20033;-69
2022/07/03 04:14:40;;;;;;;0.90;0.70;;;14.20;99.90;;;;;;5081981;28;20040;-69
2022/07/03 04:17:06;;;;;;;1.00;0.60;;;14.20;99.90;;;;;;5090003;28;20132;-69
2022/07/03 04:19:31;;;;;;;0.75;0.60;;;14.20;99.90;;;;;;5066761;28;20120;-69
2022/07/03 04:21:57;;;;;;;0.38;0.38;;;14.30;99.90;;;;;;5078155;28;20103;-69
2022/07/03 04:24:23;;;;;;;0.40;0.30;;;14.30;99.90;;;;;;5070330;28;20048;-69
2022/07/03 04:26:49;;;;;;;0.28;0.28;;;14.40;99.90;;;;;;5070285;28;20044;-69
2022/07/03 04:29:15;;;;;;;0.38;0.38;;;14.40;99.90;;;;;;5081071;28;20036;-68
2022/07/03 04:31:41;;;;;;;0.52;0.40;;;14.50;99.90;;;;;;5084073;28;20045;-69
2022/07/03 04:34:06;;;;;;;0.32;0.30;;;14.60;99.90;;;;;;5056647;28;20063;-68
2022/07/03 04:36:32;;;;;;;0.32;0.32;;;14.60;99.90;;;;;;5071855;28;20091;-69
2022/07/03 04:38:58;;;;;;;0.70;0.43;;;14.70;99.90;;;;;;5066581;28;20391;-69
2022/07/03 04:41:23;;;;;;;0.20;0.20;;;14.70;99.90;;;;;;5060767;28;20033;-68
2022/07/03 04:43:49;;;;;;;0.30;0.30;;;14.70;99.90;;;;;;5068092;28;20041;-69
2022/07/03 04:46:15;;;;;;;0.35;0.30;;;14.80;99.90;;;;;;5028918;28;20128;-69
2022/07/03 04:48:41;;;;;;;0.40;0.20;;;14.90;99.90;;;;;;5066655;28;20116;-70
2022/07/03 04:51:06;;;;;;;0.40;0.40;;;15.00;99.90;;;;;;5077356;28;20048;-71
2022/07/03 04:53:32;;;;;;;0.47;0.30;;;15.00;99.90;;;;;;5068390;28;20036;-69
2022/07/03 04:55:58;;;;;;;0.20;0.20;;;15.10;99.90;;;;;;5060301;28;20033;-75
2022/07/03 04:58:24;;;;;;;0.30;0.30;;;15.20;99.90;;;;;;5047912;28;20045;-70
2022/07/03 05:00:49;;;;;;;0.60;0.30;;;15.20;99.90;;;;;;5060800;28;20041;-70
2022/07/03 05:03:15;;;;;;;0.20;0.20;;;15.30;99.90;;;;;;5071878;28;20130;-70
2022/07/03 05:05:41;;;;;;;0.22;0.22;;;15.40;99.90;;;;;;5059274;28;20078;-70
2022/07/03 05:08:07;;;;;;;0.32;0.30;;;15.40;99.90;;;;;;5085534;28;20044;-70
2022/07/03 05:10:32;;;;;;;0.35;0.35;;;15.50;99.90;;;;;;5071961;28;20043;-69
2022/07/03 05:12:58;;;;;;;0.20;0.20;;;15.60;99.90;;;;;;5087258;28;20047;-70
2022/07/03 05:15:24;;;;;;;0.25;0.25;;;15.70;99.90;;;;;;5086282;28;20071;-70
2022/07/03 05:17:49;;;;;;;0.13;0.13;;;15.80;99.90;;;;;;5080373;28;20165;-70
2022/07/03 05:20:24;;;;;;;0.20;0.20;;;15.80;99.90;;;;;;5083244;28;20127;-69
2022/07/03 05:23:00;;;;;;;0.20;0.20;;;16.00;99.90;;;;;;5087182;28;20043;-70
2022/07/03 05:25:26;;;;;;;0.30;0.30;;;16.10;99.90;;;;;;5084980;28;20558;-69
2022/07/03 05:27:52;;;;;;;0.95;0.20;;;16.20;99.90;;;;;;5089491;28;20040;-70
2022/07/03 05:30:20;;;;;;;0.20;0.17;;;16.20;99.90;;;;;;5086571;28;20479;-69
2022/07/03 05:32:46;;;;;;;0.40;0.20;;;16.30;99.90;;;;;;5083490;28;20035;-70
2022/07/03 05:35:12;;;;;;;0.20;0.10;;;16.50;99.90;;;;;;5078115;28;20397;-70
2022/07/03 05:37:37;;;;;;;0.10;0.10;;;16.60;99.90;;;;;;5079591;28;20049;-71
2022/07/03 05:40:04;;;;;;;0.40;0.30;;;16.70;99.90;;;;;;5073039;28;20044;-70
2022/07/03 05:42:30;;;;;;;0.45;0.20;;;16.80;99.90;;;;;;5102868;28;20040;-70
2022/07/03 05:44:56;;;;;;;0.32;0.20;;;17.00;99.90;;;;;;5090532;28;20048;-70
2022/07/03 05:47:21;;;;;;;1.45;0.20;;;17.20;99.90;;;;;;5092809;28;20040;-70
2022/07/03 05:49:47;;;;;;;0.40;0.40;;;17.40;99.90;;;;;;5091404;28;20036;-70
2022/07/03 05:52:13;;;;;;;0.57;0.28;;;17.50;99.90;;;;;;5091215;28;20392;-70
2022/07/03 05:54:39;;;;;;;0.30;0.25;;;17.60;99.90;;;;;;5103045;28;20070;-70
2022/07/03 05:57:05;;;;;;;0.30;0.30;;;17.60;99.90;;;;;;5092206;28;20071;-71
2022/07/03 05:59:30;;;;;;;;;;;17.70;99.90;;;;;;5091714;28;20491;-70
2022/07/03 06:01:56;;;;;;;0.95;0.40;;;17.80;99.90;;;;;;5093403;28;19931;-70
2022/07/03 06:04:22;;;;;;;;;;;17.80;99.90;;;;;;5092255;28;20067;-69
2022/07/03 06:06:47;;;;;;;0.77;0.68;;;18.00;99.90;;;;;;5065950;28;20021;-70
2022/07/03 06:09:13;;;;;;;1.10;0.77;;;18.10;99.90;;;;;;5086689;28;20489;-69
2022/07/03 06:11:38;;;;;;;;;;;18.10;99.90;;;;;;5055550;28;20078;-70
2022/07/03 06:14:04;;;;;;;1.73;0.80;;;18.30;99.90;;;;;;5073632;28;19920;-70
2022/07/03 06:16:30;;;;;;;;;;;18.40;99.90;;;;;;5077648;28;20048;-71
2022/07/03 06:18:55;;;;;;;2.22;0.85;;;18.40;99.90;;;;;;5067293;28;19921;-70
2022/07/03 06:21:21;;;;;;;0.90;0.60;;;18.50;99.90;;;;;;5047952;28;20123;-70
2022/07/03 06:23:47;;;;;;;1.20;0.60;;;18.50;99.90;;;;;;5051749;28;20044;-70
2022/07/03 06:26:14;;;;;;;1.88;0.80;;;18.50;99.90;;;;;;5067629;28;20055;-71
2022/07/03 06:28:40;;;;;;;2.60;0.80;;;18.40;99.90;;;;;;5068772;28;20044;-70
2022/07/03 06:31:05;;;;;;;;;;;18.40;99.90;;;;;;5054526;28;20055;-70
2022/07/03 06:33:31;;;;;;;0.50;0.40;;;18.50;99.90;;;;;;5054337;28;19942;-70
2022/07/03 06:35:57;;;;;;;1.00;0.40;;;18.50;99.90;;;;;;5078805;28;20064;-69
2022/07/03 06:38:23;;;;;;;;;;;18.60;99.90;;;;;;5071327;28;20045;-70
2022/07/03 06:40:48;;;;;;;1.48;0.47;;;18.80;99.90;;;;;;5049886;28;19923;-69
2022/07/03 06:43:14;;;;;;;;;;;19.20;99.90;;;;;;5073252;28;20421;-70
2022/07/03 06:45:39;;;;;;;0.32;0.20;;;19.40;99.90;;;;;;5070998;28;19932;-70
2022/07/03 06:48:05;;;;;;;;;;;19.50;99.90;;;;;;5070873;28;20041;-70
2022/07/03 06:50:31;;;;;;;1.10;0.60;;;19.30;99.90;;;;;;5072179;28;19924;-70
2022/07/03 06:52:56;;;;;;;;;;;19.30;99.90;;;;;;5091393;28;20043;-70
2022/07/03 06:55:22;;;;;;;0.68;0.40;;;19.30;99.90;;;;;;5085371;28;19997;-69
2022/07/03 06:57:47;;;;;;;0.63;0.38;;;19.30;99.90;;;;;;5075349;28;20040;-69
2022/07/03 07:00:13;;;;;;;;;;;19.20;99.90;;;;;;5068995;28;20032;-80
2022/07/03 07:02:39;;;;;;;0.40;0.28;;;19.20;99.90;;;;;;5065030;28;20304;-70
2022/07/03 07:05:05;;;;;;;;;;;19.30;99.90;;;;;;5074487;28;20056;-70
2022/07/03 07:07:31;;;;;;;0.95;0.55;;;19.30;99.90;;;;;;5092509;28;19999;-70
2022/07/03 07:09:56;;;;;;;;;;;19.30;99.90;;;;;;5089079;28;20531;-70
2022/07/03 07:12:22;;;;;;;0.70;0.40;;;19.40;99.90;;;;;;5090892;28;19927;-70
2022/07/03 07:14:48;;;;;;;;;;;19.60;99.90;;;;;;5089023;28;20459;-70
2022/07/03 07:17:14;;;;;;;1.73;0.68;;;19.70;99.90;;;;;;5089489;28;19916;-70
2022/07/03 07:19:40;;;;;;;1.27;0.50;;;19.80;99.90;;;;;;5090863;28;20043;-70
2022/07/03 07:22:05;;;;;;;;;;;19.80;99.90;;;;;;5091215;28;20425;-71
2022/07/03 07:24:31;;;;;;;1.02;0.75;;;19.70;99.90;;;;;;5091292;28;19916;-70
2022/07/03 07:26:57;;;;;;;1.23;0.65;;;19.50;99.90;;;;;;5089485;28;20050;-70
2022/07/03 07:29:23;;;;;;;;;;;19.40;99.90;;;;;;5087233;28;20115;-70
2022/07/03 07:31:49;;;;;;;1.73;0.65;;;19.30;99.90;;;;;;5090380;28;19915;-70
2022/07/03 07:34:14;;;;;;;;;;;19.20;99.90;;;;;;5073741;28;20127;-70
2022/07/03 07:36:40;;;;;;;1.05;0.50;;;19.20;99.90;;;;;;5069971;28;19927;-70
2022/07/03 07:39:06;;;;;;;;;;;19.30;99.90;;;;;;5091032;28;20163;-70
2022/07/03 07:41:31;;;;;;;0.68;0.40;;;19.50;99.90;;;;;;5089335;28;19976;-70
2022/07/03 07:43:57;;;;;;;;;;;19.70;99.90;;;;;;5084590;28;20031;-70
2022/07/03 07:46:23;;;;;;;2.00;0.60;;;19.70;99.90;;;;;;5090310;28;20010;-70
2022/07/03 07:48:49;;;;;;;0.98;0.50;;;19.90;99.90;;;;;;5089681;28;20483;-70
2022/07/03 07:51:15;;;;;;;;;;;20.00;99.90;;;;;;5092057;28;20132;-70
2022/07/03 07:53:41;;;;;;;1.30;0.60;;;20.00;99.90;;;;;;5097335;28;19923;-70
2022/07/03 07:56:07;;;;;;;;;;;20.10;99.90;;;;;;5072078;28;20357;-70
2022/07/03 07:58:32;;;;;;;1.05;0.40;;;20.30;99.90;;;;;;5088250;28;19927;-70
2022/07/03 08:06:26;;;;;;;0.85;0.50;;;20.70;99.90;;;;;;5075963;28;20102;-71
2022/07/03 08:08:52;;;;;;;;;;;20.40;99.90;;;;;;5090828;28;20097;-71
2022/07/03 08:11:18;;;;;;;2.45;0.70;;;20.30;99.90;;;;;;5087819;28;19926;-71
2022/07/03 08:13:45;;;;;;;0.85;0.50;;;20.20;99.90;;;;;;5088195;28;20092;-71
2022/07/03 08:16:12;;;;;;;0.90;0.50;;;20.20;99.90;;;;;;5072494;28;20055;-70
2022/07/03 08:18:38;;;;;;;1.50;0.50;;;20.50;99.90;;;;;;5100912;28;20055;-71
2022/07/03 08:21:03;;;;;;;0.60;0.50;;;20.70;99.90;;;;;;5088911;28;20044;-71
2022/07/03 08:23:29;;;;;;;;;;;20.80;99.90;;;;;;5090942;28;20044;-71
2022/07/03 08:25:55;;;;;;;0.30;0.20;;;21.10;99.90;;;;;;5087790;28;19927;-71
2022/07/03 08:28:20;;;;;;;;;;;21.40;99.90;;;;;;5091102;28;20040;-71
2022/07/03 08:30:46;;;;;;;0.70;0.50;;;21.70;99.90;;;;;;5067305;28;20395;-71
2022/07/03 08:33:12;;;;;;;0.50;0.38;;;21.80;99.90;;;;;;5089477;28;20131;-71
2022/07/03 08:35:37;;;;;;;1.02;0.30;;;22.00;99.90;;;;;;5089822;28;20475;-71
2022/07/03 08:38:03;;;;;;;0.93;0.40;;;22.10;99.70;;;;;;5075222;28;20403;-71
2022/07/03 08:40:30;;;;;;;0.85;0.40;;;22.50;99.70;;;;;;5088683;28;20514;-71
2022/07/03 08:43:03;;;;;;;1.00;0.50;;;22.70;96.50;;;;;;5088271;28;20129;-71
2022/07/03 08:45:30;;;;;;;0.70;0.30;;;22.70;97.00;;;;;;5064419;28;20546;-71
2022/07/03 08:47:58;;;;;;;0.90;0.38;;;22.80;96.20;;;;;;5079331;28;20040;-71
2022/07/03 08:50:23;;;;;;;0.40;0.20;;;22.90;95.30;;;;;;5086688;28;20032;-71
2022/07/03 08:52:50;;;;;;;0.65;0.30;;;22.70;94.60;;;;;;5074829;28;20075;-71
2022/07/03 08:55:17;;;;;;;0.43;0.30;;;22.70;94.70;;;;;;5089100;28;20036;-71
2022/07/03 08:57:46;;;;;;;0.85;0.35;;;22.80;94.20;;;;;;5097517;28;20090;-71
2022/07/03 09:00:14;;;;;;;0.30;0.22;;;22.90;95.20;;;;;;5087337;28;20047;-71
2022/07/03 09:02:43;;;;;;;0.88;0.30;;;23.00;94.70;;;;;;5086984;28;20047;-71
2022/07/03 09:05:10;;;;;;;0.32;0.20;;;23.10;94.70;;;;;;5088664;28;20132;-71
2022/07/03 09:07:37;;;;;;;0.50;0.20;;;23.40;95.10;;;;;;5088665;28;20044;-71
2022/07/03 09:10:12;;;;;;;0.80;0.32;;;23.30;94.80;;;;;;5073813;28;20059;-72
2022/07/03 09:12:37;;;;;;;0.32;0.20;;;23.20;94.10;;;;;;5092357;28;20040;-71
2022/07/03 09:15:05;;;;;;;0.75;0.40;;;23.70;93.90;;;;;;5074053;28;20518;-71
2022/07/03 09:17:31;;;;;;;0.85;0.30;;;23.50;92.70;;;;;;5070986;28;20105;-71
2022/07/03 09:20:05;;;;;;;0.60;0.25;;;23.50;92.50;;;;;;5092416;28;20055;-71
2022/07/03 09:22:34;;;;;;;0.35;0.20;;;23.80;92.60;;;;;;5072882;28;20075;-71
2022/07/03 09:25:09;;;;;;;0.52;0.20;;;23.70;91.70;;;;;;5093067;28;20039;-71
2022/07/03 09:27:48;;;;;;;0.30;0.13;;;23.40;91.80;;;;;;5093799;28;20044;-71
2022/07/03 09:30:14;;;;;;;0.30;0.20;;;23.30;92.00;;;;;;5078220;28;20078;-71
2022/07/03 09:32:48;;;;;;;0.52;0.20;;;23.50;92.00;;;;;;5090800;28;20067;-71
2022/07/03 09:35:14;;;;;;;0.40;0.20;;;23.60;92.50;;;;;;5091591;28;20048;-71
2022/07/03 09:37:41;;;;;;;0.40;0.20;;;23.60;92.10;;;;;;5093430;28;20048;-71
2022/07/03 09:40:07;;;;;;;0.63;0.30;;;23.70;91.90;;;;;;5092841;28;20048;-71
2022/07/03 09:42:33;;;;;;;0.85;0.22;;;23.70;92.10;;;;;;5092925;28;20491;-71
2022/07/03 09:44:58;;;;;;;0.47;0.20;;;23.80;92.00;;;;;;5106185;28;20050;-71
2022/07/03 09:47:25;;;;;;;0.65;0.40;;;23.70;92.70;;;;;;5075803;28;20052;-71
2022/07/03 09:50:04;;;;;;;0.35;0.20;;;24.10;92.70;;;;;;5072126;28;20040;-71
2022/07/03 09:52:32;;;;;;;0.55;0.22;;;24.30;92.50;;;;;;5089632;28;20032;-71
2022/07/03 09:55:00;;;;;;;0.38;0.20;;;23.80;92.00;;;;;;5091503;28;20214;-70
2022/07/03 09:57:29;;;;;;;1.10;0.40;;;23.70;92.90;;;;;;5075806;28;20455;-71
2022/07/03 10:00:20;;;;;;;0.63;0.30;;;23.60;92.80;;;;;;5092950;28;20059;-71
2022/07/03 10:03:00;;;;;;;0.40;0.20;;;23.80;93.30;;;;;;5094416;28;20044;-71
2022/07/03 10:05:34;;;;;;;0.68;0.35;;;23.40;93.00;;;;;;5090796;28;20461;-71
2022/07/03 10:08:02;;;;;;;0.63;0.30;;;23.00;93.40;;;;;;5090180;28;20040;-71
2022/07/03 10:10:33;;;;;;;0.90;0.40;;;22.60;93.70;;;;;;5083139;28;20044;-71
2022/07/03 10:12:59;;;;;;;1.38;0.40;;;22.60;94.10;;;;;;5086780;28;20437;-71
2022/07/03 10:15:26;;;;;;;1.20;0.40;;;22.60;94.00;;;;;;5092039;28;20118;-70
2022/07/03 10:17:54;;;;;;;0.98;0.65;;;22.90;94.40;;;;;;5043751;28;20449;-70
2022/07/03 10:20:48;;;;;;;0.80;0.40;;;23.10;94.60;;;;;;5068387;28;20445;-70
2022/07/03 10:23:21;;;;;;;0.32;0.32;;;23.40;94.20;;;;;;5078335;28;20127;-70
2022/07/03 10:25:48;;;;;;;1.25;0.45;;;23.30;94.30;;;;;;5078103;28;20063;-70
2022/07/03 10:28:15;;;;;;;0.80;0.30;;;23.50;94.10;;;;;;5088751;28;20120;-69
2022/07/03 10:30:46;;;;;;;1.27;0.40;;;23.90;94.50;;;;;;5053974;28;20352;-69
2022/07/03 10:33:12;;;;;;;1.38;0.43;;;24.20;94.10;;;;;;5070757;28;20035;-70
2022/07/03 10:35:41;;;;;;;0.55;0.30;;;24.30;92.60;;;;;;5070811;28;20039;-69
2022/07/03 10:38:22;;;;;;;0.60;0.35;;;24.10;93.30;;;;;;5073704;28;20422;-69
2022/07/03 10:46:41;;;;;;;0.95;0.40;;;23.90;93.10;;;;;;5069422;28;20448;-69
2022/07/03 10:49:11;;;;;;;0.57;0.30;;;23.70;92.90;;;;;;5063480;28;20040;-72
2022/07/03 10:52:02;;;;;;;0.95;0.32;;;23.50;93.30;;;;;;5072552;28;20036;-71
2022/07/03 10:54:48;;;;;;;1.50;0.30;;;23.20;93.40;;;;;;5072156;28;20063;-70
2022/07/03 10:57:18;;;;;;;1.40;0.38;;;23.60;93.80;;;;;;5051109;28;20040;-70
2022/07/03 10:59:46;;;;;;;0.47;0.30;;;23.90;93.00;;;;;;5065503;28;20119;-70
2022/07/03 11:02:21;;;;;;;0.55;0.30;;;24.20;93.00;;;;;;5060621;28;20064;-70
2022/07/03 11:04:59;;;;;;;0.38;0.38;;;24.60;93.50;;;;;;5064569;28;20745;-70
2022/07/03 11:07:27;;;;;;;0.20;0.20;;;24.70;93.00;;;;;;5097964;27;20218;-70
2022/07/03 11:10:16;;;;;;;0.25;0.20;;;25.00;92.70;;;;;;5085970;28;20035;-70
2022/07/03 11:13:15;;;;;;;2.17;0.60;;;25.30;91.60;;;;;;5086032;28;20130;-70
2022/07/03 11:15:47;;;;;;;1.50;0.30;;;25.40;92.20;;;;;;5085838;28;20108;-70
2022/07/03 11:18:12;;;;;;;0.70;0.40;;;25.30;91.80;;;;;;5093512;28;20105;-70
2022/07/03 11:20:44;;;;;;;0.35;0.20;;;25.50;91.90;;;;;;5077285;28;20078;-70
2022/07/03 11:23:09;;;;;;;0.77;0.43;;;25.40;91.40;;;;;;5088677;27;20035;-71
2022/07/03 11:25:40;;;;;;;1.80;0.60;;;24.90;92.20;;;;;;5088951;28;20375;-70
2022/07/03 11:28:06;;;;;;;1.90;0.60;;;24.70;92.20;;;;;;5090418;28;20049;-70
2022/07/03 11:30:33;;;;;;;1.38;0.50;;;24.80;92.70;;;;;;5089370;28;20081;-71
2022/07/03 11:33:00;;;;;;;2.15;0.40;;;24.80;91.50;;;;;;5106276;27;20351;-71
2022/07/03 11:35:45;;;;;;;1.05;0.50;;;24.20;92.60;;;;;;5092057;28;20043;-71
2022/07/03 11:38:15;;;;;;;1.58;0.63;;;23.90;93.70;;;;;;5089462;28;20451;-71
2022/07/03 11:40:45;;;;;;;1.40;0.55;;;23.80;93.80;;;;;;5090156;28;20035;-71
2022/07/03 11:43:12;;;;;;;0.82;0.32;;;24.00;93.90;;;;;;5075840;28;20124;-70
2022/07/03 11:45:40;;;;;;;1.30;0.40;;;24.10;93.60;;;;;;5089898;28;20047;-70
2022/07/03 11:48:08;;;;;;;1.10;0.57;;;24.20;92.60;;;;;;5090597;28;20065;-71
2022/07/03 11:50:38;;;;;;;2.58;0.60;;;24.50;93.60;;;;;;5089400;28;20356;-70
2022/07/03 11:53:28;;;;;;;4.20;1.00;;;24.70;95.30;;;;;;5091260;28;20035;-72
2022/07/03 11:55:55;;;;;;;2.65;0.90;;;24.30;94.30;;;;;;5087659;28;20043;-71
2022/07/03 11:58:21;;;;;;;1.70;0.73;;;24.20;94.90;;;;;;5091392;28;20058;-71
2022/07/03 12:00:47;;;;;;;2.38;0.70;;;24.20;95.20;;;;;;5069230;28;20503;-72
2022/07/03 12:03:22;;;;;;;2.10;0.75;;;24.10;94.80;;;;;;5092245;28;20118;-71
2022/07/03 12:05:57;;;;;;;2.35;0.80;;;23.50;94.70;;;;;;5091338;28;20475;-71
2022/07/03 12:08:33;;;;;;;3.25;1.00;;;22.90;95.30;;;;;;5089197;28;20411;-70
2022/07/03 12:11:02;;;;;;;2.90;0.60;;;22.60;96.30;;;;;;5072958;28;20047;-70
2022/07/03 12:13:30;;;;;;;3.65;0.88;;;22.60;96.50;;;;;;5081305;28;20126;-69
2022/07/03 12:16:02;;;;;;;2.97;0.80;;;22.70;95.70;;;;;;5080769;28;20028;-69
2022/07/03 12:18:51;;;;;;;3.45;0.63;;;23.00;95.60;;;;;;5108461;28;20052;-70
2022/07/03 12:21:22;;;;;;;2.22;0.60;;;23.80;95.60;;;;;;5102514;28;20099;-70
2022/07/03 12:23:53;;;;;;;1.85;0.60;;;24.00;94.50;;;;;;5087724;28;20043;-70
2022/07/03 12:26:33;;;;;;;1.30;0.60;;;24.00;94.10;;;;;;5072176;28;20320;-70
2022/07/03 12:29:03;;;;;;;0.55;0.30;;;23.90;94.00;;;;;;5091221;28;20522;-70
2022/07/03 12:31:29;;;;;;;2.92;1.00;;;24.00;95.20;;;;;;5091974;28;20063;-70
2022/07/03 12:33:59;;;;;;;2.05;0.90;;;23.50;95.20;;;;;;5090513;28;20036;-69
2022/07/03 12:36:25;;;;;;;2.83;0.80;;;23.40;95.60;;;;;;5089949;28;20383;-76
2022/07/03 12:38:59;;;;;;;3.95;0.85;;;23.50;95.60;;;;;;5059396;28;20044;-70
2022/07/03 12:41:26;;;;;;;3.58;0.70;;;23.70;94.80;;;;;;5077907;28;20040;-70
2022/07/03 12:43:52;;;;;;;2.63;0.88;;;23.80;94.90;;;;;;5079232;28;20052;-69
2022/07/03 12:46:19;;;;;;;2.88;0.68;;;23.50;95.30;;;;;;5065189;28;20090;-69
2022/07/03 12:48:52;;;;;;;1.67;0.50;;;23.20;95.30;;;;;;5084567;28;20035;-69
2022/07/03 12:51:37;;;;;;;1.77;0.50;;;23.70;96.20;;;;;;5086842;28;20468;-69
2022/07/03 12:54:03;;;;;;;3.85;0.73;;;24.00;95.40;;;;;;5081096;28;20364;-70
2022/07/03 12:56:29;;;;;;;1.63;0.70;;;23.70;95.30;;;;;;5050308;28;20096;-69
2022/07/03 13:01:39;;;;;;;3.17;1.00;;;23.80;96.10;;;;;;5083209;28;20192;-71
2022/07/03 13:04:08;;;;;;;3.75;0.70;;;23.70;95.30;;;;;;5072749;28;20530;-71
2022/07/03 13:06:34;;;;;;;3.75;0.85;;;23.90;95.20;;;;;;5084404;28;20127;-71
2022/07/03 13:09:05;;;;;;;1.35;0.60;;;24.20;95.50;;;;;;5062886;28;20047;-71
2022/07/03 13:11:32;;;;;;;2.78;0.50;;;24.50;95.40;;;;;;5079694;28;20121;-71
2022/07/03 13:14:10;;;;;;;1.23;0.50;;;24.30;94.40;;;;;;5069686;28;20052;-71
2022/07/03 13:16:50;;;;;;;0.57;0.20;;;24.10;93.50;;;;;;5083241;28;20039;-71
2022/07/03 13:19:18;;;;;;;1.23;0.60;;;23.90;94.70;;;;;;5084007;28;20391;-71